Time;durP1;ratioP1;P1;durP2;ratioP2;P2;SDS_P1;SDS_P2;PMS_P1;PMS_P2;Temp;Humidity;BMP_temperature;BMP_pressure;BME280_temperature;BME280_humidity;BME280_pressure;Samples;Min_cycle;Max_cycle;Signal;HPM_P1;HPM_P2
2021/07/25 00:02:05;;;;;;;8.88;7.07;;;23.70;77.10;;;;;;5058101;28;20038;-91
2021/07/25 00:05:02;;;;;;;9.77;7.35;;;23.70;77.20;;;;;;5057286;28;20037;-92
2021/07/25 00:07:45;;;;;;;12.15;7.63;;;23.70;76.90;;;;;;5070853;28;20048;-92
2021/07/25 00:10:23;;;;;;;9.52;6.30;;;23.70;76.40;;;;;;5056726;28;20033;-91
2021/07/25 00:12:59;;;;;;;8.88;6.28;;;23.60;76.40;;;;;;5057167;28;20044;-91
2021/07/25 00:15:40;;;;;;;8.75;6.82;;;23.60;76.20;;;;;;5057134;28;20366;-92
2021/07/25 00:18:13;;;;;;;12.70;7.10;;;23.60;76.30;;;;;;5040939;28;20128;-91
2021/07/25 00:20:39;;;;;;;11.63;7.32;;;23.60;76.30;;;;;;5056836;28;20313;-91
2021/07/25 00:23:17;;;;;;;9.07;6.65;;;23.60;76.50;;;;;;5057217;28;20061;-91
2021/07/25 00:25:54;;;;;;;10.00;6.60;;;23.50;76.20;;;;;;5056917;28;20053;-92
2021/07/25 00:28:20;;;;;;;11.40;6.70;;;23.50;76.50;;;;;;5056765;28;20041;-92
2021/07/25 00:30:50;;;;;;;9.15;6.95;;;23.50;76.90;;;;;;5056564;28;20034;-91
2021/07/25 00:34:03;;;;;;;12.68;7.80;;;23.50;77.20;;;;;;5057380;28;20287;-92
2021/07/25 00:36:47;;;;;;;9.52;7.32;;;23.40;76.90;;;;;;5055292;28;20041;-91
2021/07/25 00:39:42;;;;;;;11.77;6.97;;;23.40;77.20;;;;;;5071727;28;20037;-91
2021/07/25 00:43:01;;;;;;;9.55;6.70;;;23.30;77.00;;;;;;5064007;28;20052;-92
2021/07/25 00:48:49;;;;;;;;;;;;;;;;;;;;;
2021/07/25 00:51:20;;;;;;;10.80;6.93;;;23.20;78.10;;;;;;5053103;28;20409;-92
2021/07/25 01:01:08;;;;;;;7.78;6.22;;;23.20;78.50;;;;;;5038205;28;20029;-92
2021/07/25 01:04:08;;;;;;;;;;;;;;;;;;;;;
2021/07/25 01:07:14;;;;;;;8.75;6.28;;;23.10;78.70;;;;;;5040335;28;20034;-91
2021/07/25 01:09:53;;;;;;;10.27;7.20;;;23.10;78.80;;;;;;5041251;28;20038;-91
2021/07/25 01:12:46;;;;;;;8.55;6.47;;;23.10;78.90;;;;;;5057778;28;20065;-92
2021/07/25 01:15:24;;;;;;;11.90;7.30;;;23.00;79.10;;;;;;5056556;28;20042;-91
2021/07/25 01:18:05;;;;;;;;;;;;;;;;;;;;;
2021/07/25 01:20:36;;;;;;;8.85;6.55;;;23.00;79.50;;;;;;5039762;28;20032;-92
2021/07/25 01:23:09;;;;;;;12.15;6.72;;;23.00;79.80;;;;;;5058195;28;20041;-91
2021/07/25 01:25:43;;;;;;;10.05;7.95;;;23.00;80.10;;;;;;5069525;28;20057;-91
2021/07/25 01:28:18;;;;;;;13.32;7.75;;;22.90;80.50;;;;;;5056265;28;20048;-91
2021/07/25 01:30:59;;;;;;;10.10;6.85;;;22.90;80.70;;;;;;5055348;28;20038;-91
2021/07/25 01:33:49;;;;;;;9.27;6.70;;;22.90;80.60;;;;;;5055141;28;20037;-91
2021/07/25 01:36:18;;;;;;;11.90;8.05;;;22.90;80.90;;;;;;5055676;28;20033;-91
2021/07/25 01:38:48;;;;;;;14.57;8.07;;;22.90;81.00;;;;;;5055759;28;20034;-91
2021/07/25 01:41:19;;;;;;;14.60;7.55;;;22.90;81.50;;;;;;5054943;28;20434;-92
2021/07/25 01:44:01;;;;;;;9.23;7.28;;;22.90;81.60;;;;;;5055412;28;20044;-91
2021/07/25 01:46:39;;;;;;;10.18;8.10;;;22.90;81.60;;;;;;5055569;28;20033;-91
2021/07/25 01:49:40;;;;;;;11.57;7.40;;;22.90;81.50;;;;;;5055356;28;20055;-91
2021/07/25 01:52:11;;;;;;;12.52;7.25;;;22.90;81.70;;;;;;5055767;28;20317;-91
2021/07/25 01:54:43;;;;;;;9.05;6.90;;;22.80;81.90;;;;;;5055297;28;20045;-91
2021/07/25 01:57:27;;;;;;;12.98;8.77;;;22.80;82.00;;;;;;5055057;28;20041;-91
2021/07/25 02:00:37;;;;;;;12.68;7.25;;;22.80;81.80;;;;;;5055260;28;20187;-93
2021/07/25 02:03:21;;;;;;;10.85;7.22;;;22.80;81.90;;;;;;5054927;28;20040;-92
2021/07/25 02:05:56;;;;;;;8.77;6.68;;;22.80;82.40;;;;;;5055154;28;20045;-90
2021/07/25 02:08:46;;;;;;;12.98;7.55;;;22.70;82.30;;;;;;5055483;28;20116;-91
2021/07/25 02:11:20;;;;;;;10.95;6.85;;;22.70;82.50;;;;;;5055750;28;20033;-90
2021/07/25 02:14:03;;;;;;;;;;;;;;;;;;;;;
2021/07/25 02:16:58;;;;;;;9.73;7.43;;;22.60;82.90;;;;;;5042444;28;20112;-92
2021/07/25 02:19:29;;;;;;;9.27;7.47;;;22.60;82.60;;;;;;5065947;28;20033;-91
2021/07/25 02:29:30;;;;;;;;;;;;;;;;;;;;;
2021/07/25 02:32:33;;;;;;;9.43;7.28;;;22.60;82.60;;;;;;5036795;28;20032;-92
2021/07/25 02:35:10;;;;;;;13.25;7.65;;;22.60;82.80;;;;;;5020817;28;20041;-92
2021/07/25 02:37:41;;;;;;;11.55;6.95;;;22.50;82.90;;;;;;5038460;28;20374;-91
2021/07/25 02:40:46;;;;;;;12.45;7.70;;;22.50;83.00;;;;;;5065774;28;20196;-92
2021/07/25 02:46:42;;;;;;;12.82;7.90;;;22.40;83.60;;;;;;5028409;28;20048;-91
2021/07/25 02:49:21;;;;;;;10.10;7.18;;;22.40;84.00;;;;;;5054983;28;20044;-91
2021/07/25 02:52:19;;;;;;;10.98;7.68;;;22.40;84.20;;;;;;5038442;28;20037;-91
2021/07/25 02:55:03;;;;;;;12.80;7.75;;;22.30;84.00;;;;;;5073156;28;20039;-91
2021/07/25 02:57:43;;;;;;;11.35;7.85;;;22.30;84.60;;;;;;5058579;28;20037;-91
2021/07/25 03:00:29;;;;;;;13.07;8.02;;;22.20;85.00;;;;;;5058821;28;20044;-91
2021/07/25 03:06:01;;;;;;;16.58;8.27;;;22.10;85.10;;;;;;5042149;28;20071;-91
2021/07/25 03:08:39;;;;;;;11.70;8.32;;;22.10;85.70;;;;;;5058075;28;20129;-91
2021/07/25 03:11:55;;;;;;;11.07;7.95;;;22.00;85.90;;;;;;5057854;28;20095;-91
2021/07/25 03:14:25;;;;;;;10.32;8.02;;;22.00;86.30;;;;;;5057301;28;20037;-92
2021/07/25 03:16:51;;;;;;;11.60;8.57;;;21.90;86.60;;;;;;5058245;28;20090;-90
2021/07/25 03:19:25;;;;;;;11.02;7.28;;;21.90;86.90;;;;;;5057909;28;20124;-91
2021/07/25 03:22:04;;;;;;;14.18;7.28;;;21.90;87.20;;;;;;5058030;28;20041;-90
2021/07/25 03:24:49;;;;;;;12.77;8.15;;;21.90;87.30;;;;;;5057984;28;20270;-91
2021/07/25 03:27:15;;;;;;;14.07;7.40;;;21.80;87.20;;;;;;5052472;28;20034;-90
2021/07/25 03:30:02;;;;;;;15.60;7.78;;;21.70;87.40;;;;;;5057275;28;20048;-91
2021/07/25 03:32:38;;;;;;;10.98;8.00;;;21.80;87.60;;;;;;5058917;28;20037;-92
2021/07/25 03:35:35;;;;;;;8.63;7.35;;;21.80;88.00;;;;;;5057896;28;20120;-91
2021/07/25 03:38:07;;;;;;;10.63;7.00;;;21.80;88.00;;;;;;5057466;28;20099;-91
2021/07/25 03:40:51;;;;;;;11.15;7.88;;;21.80;88.30;;;;;;5057554;28;20048;-91
2021/07/25 03:43:22;;;;;;;10.93;7.57;;;21.80;88.20;;;;;;5058129;28;20412;-91
2021/07/25 03:45:55;;;;;;;10.02;7.55;;;21.80;88.20;;;;;;5062678;28;20037;-91
2021/07/25 03:48:24;;;;;;;11.95;8.68;;;21.70;88.20;;;;;;5068138;28;20041;-91
2021/07/25 03:51:09;;;;;;;11.38;8.63;;;21.80;88.30;;;;;;5057933;28;20037;-91
2021/07/25 03:53:43;;;;;;;9.68;7.78;;;21.80;88.50;;;;;;5057569;28;20037;-91
2021/07/25 03:56:48;;;;;;;11.02;8.27;;;21.80;88.20;;;;;;5057697;28;20061;-90
2021/07/25 03:59:14;;;;;;;10.40;7.65;;;21.90;87.90;;;;;;5057314;28;20044;-92
2021/07/25 04:08:49;;;;;;;9.68;7.30;;;22.00;87.80;;;;;;5029243;28;20116;-91
2021/07/25 04:15:00;;;;;;;13.40;7.20;;;22.10;88.00;;;;;;5029994;28;20040;-91
2021/07/25 04:18:34;;;;;;;16.33;8.55;;;22.20;87.80;;;;;;5074125;28;20059;-91
2021/07/25 04:21:50;;;;;;;12.98;7.15;;;22.30;87.40;;;;;;4986871;28;20099;-91
2021/07/25 04:25:13;;;;;;;13.48;7.57;;;22.30;87.20;;;;;;4981497;28;20044;-92
2021/07/25 04:31:54;;;;;;;9.18;6.90;;;22.50;87.30;;;;;;5028793;28;20657;-91
2021/07/25 04:38:10;;;;;;;12.63;7.35;;;22.60;87.50;;;;;;5034155;28;20048;-92
2021/07/25 04:44:56;;;;;;;13.82;7.13;;;22.70;87.20;;;;;;4980285;28;20053;-92
2021/07/25 04:51:44;;;;;;;10.23;7.30;;;22.70;86.00;;;;;;4960420;29;20031;-92
2021/07/25 04:54:19;;;;;;;11.15;7.00;;;22.70;86.40;;;;;;4968681;28;20116;-92
2021/07/25 05:00:02;;;;;;;10.25;6.65;;;22.80;87.00;;;;;;5041670;28;20095;-92
2021/07/25 05:02:39;;;;;;;;;;;;;;;;;;;;;
2021/07/25 05:05:49;;;;;;;8.77;6.50;;;22.80;87.00;;;;;;5043369;28;20372;-94
2021/07/25 05:08:48;;;;;;;9.85;6.97;;;22.80;87.20;;;;;;5038214;28;20131;-93
2021/07/25 05:11:26;;;;;;;9.23;6.80;;;22.70;87.90;;;;;;5058236;28;20047;-93
2021/07/25 05:18:37;;;;;;;12.55;6.57;;;22.80;88.20;;;;;;5045865;28;20293;-92
2021/07/25 05:21:43;;;;;;;;;;;;;;;;;;;;;
2021/07/25 05:25:08;;;;;;;;;;;;;;;;;;;;;
2021/07/25 05:31:24;;;;;;;13.27;6.47;;;22.70;89.40;;;;;;5032605;28;20036;-91
2021/07/25 05:34:37;;;;;;;;;;;;;;;;;;;;;
2021/07/25 05:40:38;;;;;;;9.13;6.38;;;22.60;90.10;;;;;;5047090;28;20048;-92
2021/07/25 06:20:53;;;;;;;7.10;4.32;;;24.00;87.30;;;;;;5305535;22;17801698;-90
2021/07/25 06:27:55;;;;;;;;;;;;;;;;;;;;;
2021/07/25 06:41:09;;;;;;;;;;;;;;;;;;;;;
2021/07/25 06:43:36;;;;;;;8.30;6.13;;;24.70;85.70;;;;;;5021601;28;20030;-90
2021/07/25 06:46:02;;;;;;;7.90;5.07;;;24.70;85.00;;;;;;5022822;28;20042;-91
2021/07/25 06:48:44;;;;;;;9.50;6.00;;;24.70;85.90;;;;;;5023120;28;20061;-90
2021/07/25 06:51:15;;;;;;;5.95;5.18;;;24.70;86.30;;;;;;5021959;28;20038;-90
2021/07/25 06:53:44;;;;;;;8.25;5.55;;;24.70;86.40;;;;;;5039974;28;20034;-91
2021/07/25 06:56:13;;;;;;;8.57;5.53;;;24.70;87.10;;;;;;5022018;28;20042;-91
2021/07/25 06:58:59;;;;;;;8.30;5.90;;;24.80;85.80;;;;;;5030763;28;20018;-92
2021/07/25 07:01:27;;;;;;;8.63;5.50;;;24.80;85.30;;;;;;5028416;28;20045;-90
2021/07/25 07:04:57;;;;;;;7.97;5.40;;;24.80;85.20;;;;;;5021851;28;20048;-92
2021/07/25 07:07:46;;;;;;;11.90;5.25;;;24.90;85.90;;;;;;5020421;28;20567;-92
2021/07/25 07:13:17;;;;;;;8.32;5.40;;;25.00;85.20;;;;;;5022049;28;20036;-92
2021/07/25 07:16:01;;;;;;;6.20;5.00;;;25.10;85.80;;;;;;5021423;28;20045;-92
2021/07/25 07:19:22;;;;;;;6.90;5.22;;;25.10;86.40;;;;;;5021464;28;20033;-92
2021/07/25 07:22:41;;;;;;;9.38;5.15;;;25.20;85.30;;;;;;5005003;28;20259;-93
2021/07/25 07:25:39;;;;;;;6.45;5.13;;;25.30;85.50;;;;;;5021405;28;20128;-92
2021/07/25 07:28:36;;;;;;;9.85;5.38;;;25.40;85.70;;;;;;5025197;28;20061;-92
2021/07/25 07:32:05;;;;;;;7.15;5.35;;;25.50;84.20;;;;;;5024023;28;20040;-93
2021/07/25 07:34:33;;;;;;;8.05;6.13;;;25.60;84.30;;;;;;5018557;28;20042;-92
2021/07/25 07:37:19;;;;;;;6.78;4.80;;;25.70;84.30;;;;;;5021202;28;20042;-93
2021/07/25 07:40:04;;;;;;;6.38;5.20;;;25.80;83.90;;;;;;5020846;28;20034;-92
2021/07/25 07:43:14;;;;;;;7.75;4.63;;;25.80;83.80;;;;;;5021266;28;20421;-92
2021/07/25 07:45:51;;;;;;;7.95;6.03;;;25.90;83.30;;;;;;5020645;28;20333;-91
2021/07/25 07:48:25;;;;;;;8.55;5.75;;;25.90;84.20;;;;;;5021007;28;20030;-92
2021/07/25 07:50:50;;;;;;;7.97;5.00;;;26.00;84.80;;;;;;5021409;28;20057;-92
2021/07/25 07:53:22;;;;;;;9.57;5.70;;;26.10;83.30;;;;;;5023533;28;20041;-92
2021/07/25 07:56:29;;;;;;;;;;;;;;;;;;;;;
2021/07/25 07:59:21;;;;;;;6.40;4.90;;;26.30;82.70;;;;;;5029824;28;20057;-90
2021/07/25 08:02:10;;;;;;;7.95;5.30;;;26.50;80.90;;;;;;5025048;28;20038;-90
2021/07/25 08:05:04;;;;;;;9.63;5.20;;;26.60;81.10;;;;;;5037175;28;20085;-91
2021/07/25 08:07:59;;;;;;;10.25;6.50;;;26.70;80.80;;;;;;5024179;28;20037;-89
2021/07/25 08:10:24;;;;;;;5.97;4.75;;;26.80;79.60;;;;;;5022774;28;20406;-89
2021/07/25 08:16:55;;;;;;;9.27;5.05;;;27.00;80.00;;;;;;5010072;28;20120;-90
2021/07/25 08:19:28;;;;;;;8.40;5.35;;;27.10;80.00;;;;;;5019144;28;20061;-90
2021/07/25 08:22:03;;;;;;;10.18;5.90;;;27.30;79.60;;;;;;5020542;28;20045;-90
2021/07/25 08:24:39;;;;;;;6.45;5.15;;;27.40;77.50;;;;;;5020836;28;20073;-92
2021/07/25 08:27:31;;;;;;;7.03;5.05;;;27.50;77.60;;;;;;5020850;28;20459;-92
2021/07/25 08:30:27;;;;;;;;;;;27.50;77.50;;;;;;5023509;28;20100;-92
2021/07/25 08:32:58;;;;;;;5.85;4.53;;;27.60;77.40;;;;;;5024920;28;19917;-91
2021/07/25 08:36:04;;;;;;;6.22;5.05;;;27.70;76.20;;;;;;5020207;28;20038;-91
2021/07/25 08:38:48;;;;;;;7.40;5.13;;;27.80;75.10;;;;;;5034096;28;20032;-92
2021/07/25 08:41:17;;;;;;;7.18;5.00;;;27.80;75.90;;;;;;5009857;28;20034;-91
2021/07/25 08:44:21;;;;;;;7.38;5.40;;;27.80;74.40;;;;;;5020186;28;20037;-91
2021/07/25 08:47:03;;;;;;;7.00;4.43;;;27.90;75.20;;;;;;5020490;28;20042;-91
2021/07/25 08:50:01;;;;;;;5.35;4.43;;;28.00;77.00;;;;;;5019295;28;20046;-90
2021/07/25 08:56:07;;;;;;;6.45;4.88;;;28.20;72.90;;;;;;5010970;28;20030;-93
2021/07/25 08:58:45;;;;;;;6.00;4.97;;;28.40;76.10;;;;;;5019789;28;20125;-89
2021/07/25 09:01:14;;;;;;;7.90;5.65;;;28.50;75.30;;;;;;5019432;28;20033;-91
2021/07/25 09:03:39;;;;;;;7.05;4.65;;;28.60;74.00;;;;;;5019429;28;20045;-91
2021/07/25 09:06:49;;;;;;;7.03;4.95;;;28.70;75.80;;;;;;5019291;28;20041;-92
2021/07/25 09:09:51;;;;;;;6.03;4.28;;;28.90;72.90;;;;;;5019187;28;20038;-93
2021/07/25 09:12:27;;;;;;;5.78;4.65;;;29.10;73.50;;;;;;5013396;28;20038;-89
2021/07/25 09:15:07;;;;;;;6.95;4.45;;;29.30;72.10;;;;;;5032004;28;20046;-89
2021/07/25 09:17:42;;;;;;;8.63;5.82;;;29.50;70.20;;;;;;5042312;28;20038;-91
2021/07/25 09:20:22;;;;;;;8.52;5.53;;;29.50;70.20;;;;;;5019411;28;20306;-90
2021/07/25 09:22:56;;;;;;;7.63;4.85;;;29.60;70.90;;;;;;5035893;28;20473;-92
2021/07/25 09:25:24;;;;;;;7.10;5.20;;;29.50;71.00;;;;;;5044237;28;20053;-91
2021/07/25 09:28:23;;;;;;;6.05;4.47;;;29.60;70.40;;;;;;5045581;28;20049;-87
2021/07/25 09:31:12;;;;;;;6.57;4.88;;;29.60;72.40;;;;;;5019068;28;20037;-93
2021/07/25 09:36:45;;;;;;;5.60;4.97;;;29.70;68.50;;;;;;5019449;28;20049;-91
2021/07/25 09:39:13;;;;;;;;;;;29.80;69.90;;;;;;5018973;28;20072;-93
2021/07/25 09:42:01;;;;;;;6.63;4.07;;;29.80;70.80;;;;;;5018783;28;19967;-88
2021/07/25 09:44:55;;;;;;;6.28;4.97;;;29.80;71.00;;;;;;5017581;28;20124;-92
2021/07/25 09:47:34;;;;;;;6.43;4.68;;;29.90;69.20;;;;;;5018723;28;20034;-91
2021/07/25 09:50:01;;;;;;;6.70;4.50;;;29.90;69.80;;;;;;5018692;28;20034;-90
2021/07/25 09:52:28;;;;;;;6.03;4.78;;;29.80;67.80;;;;;;5018877;28;20045;-91
2021/07/25 09:54:58;;;;;;;6.20;4.68;;;29.70;68.40;;;;;;5017989;28;20061;-89
2021/07/25 09:57:29;;;;;;;5.72;4.40;;;29.60;69.10;;;;;;5018524;28;20050;-92
2021/07/25 10:00:13;;;;;;;7.40;4.47;;;29.50;67.90;;;;;;5018583;28;20578;-89
2021/07/25 10:02:49;;;;;;;6.70;4.80;;;29.30;67.20;;;;;;5022433;28;20044;-91
2021/07/25 10:05:30;;;;;;;6.38;4.30;;;29.20;66.60;;;;;;5022560;28;20049;-92
2021/07/25 10:11:20;;;;;;;;;;;29.00;66.90;;;;;;5019164;28;20034;-91
2021/07/25 10:14:08;;;;;;;5.82;4.13;;;28.80;67.30;;;;;;5025422;28;19924;-92
2021/07/25 10:16:56;;;;;;;5.30;3.95;;;28.60;67.40;;;;;;5018748;28;20049;-92
2021/07/25 10:22:50;;;;;;;7.57;4.13;;;28.50;67.30;;;;;;5017991;28;20084;-93
2021/07/25 10:25:23;;;;;;;6.68;4.78;;;28.50;67.80;;;;;;5018194;28;20050;-92
2021/07/25 10:28:00;;;;;;;7.85;4.80;;;28.50;70.50;;;;;;5018325;28;20041;-92
2021/07/25 10:30:26;;;;;;;7.20;4.80;;;28.50;68.90;;;;;;5018762;28;20034;-92
2021/07/25 10:33:02;;;;;;;7.22;4.45;;;28.60;67.70;;;;;;5025927;28;20033;-91
2021/07/25 10:35:40;;;;;;;6.53;4.55;;;28.60;69.00;;;;;;5030839;28;20046;-93
2021/07/25 10:38:32;;;;;;;5.70;4.38;;;28.80;69.10;;;;;;5018073;28;20412;-91
2021/07/25 10:47:54;;;;;;;6.47;4.00;;;29.30;68.80;;;;;;5019210;28;20028;-90
2021/07/25 10:51:19;;;;;;;5.55;4.45;;;29.40;69.10;;;;;;5016352;28;20042;-91
2021/07/25 10:54:24;;;;;;;6.07;4.80;;;29.50;69.90;;;;;;5000718;28;20034;-91
2021/07/25 10:57:08;;;;;;;8.13;4.85;;;29.80;68.60;;;;;;5026288;28;20038;-92
2021/07/25 10:59:55;;;;;;;6.00;4.75;;;29.90;67.30;;;;;;5018668;28;20099;-89
2021/07/25 11:02:26;;;;;;;6.75;4.30;;;30.00;67.00;;;;;;5017718;28;20350;-90
2021/07/25 11:05:08;;;;;;;;;;;;;;;;;;;;;
2021/07/25 11:08:45;;;;;;;6.38;4.70;;;30.10;65.80;;;;;;5018498;28;20269;-90
2021/07/25 11:15:01;;;;;;;8.93;4.30;;;30.10;65.00;;;;;;5020268;28;20034;-90
2021/07/25 11:17:45;;;;;;;7.88;5.03;;;30.10;63.50;;;;;;4988666;28;20041;-89
2021/07/25 11:20:38;;;;;;;11.85;5.45;;;30.10;64.50;;;;;;5021537;28;20301;-89
2021/07/25 11:26:39;;;;;;;6.07;4.78;;;30.30;66.40;;;;;;5022504;28;20180;-90
2021/07/25 11:30:04;;;;;;;;;;;;;;;;;;;;;
2021/07/25 11:33:37;;;;;;;;;;;;;;;;;;;;;
2021/07/25 11:36:25;;;;;;;6.13;4.72;;;31.20;63.60;;;;;;4980149;28;20069;-91
2021/07/25 11:43:09;;;;;;;7.47;4.25;;;31.70;62.60;;;;;;5022781;28;20045;-94
2021/07/25 11:45:40;;;;;;;5.18;3.75;;;31.90;60.90;;;;;;5052426;28;20093;-92
2021/07/25 11:48:37;;;;;;;7.25;4.05;;;32.00;62.10;;;;;;5018853;28;20042;-89
2021/07/25 11:51:30;;;;;;;5.97;3.97;;;32.10;60.60;;;;;;5021078;28;20045;-92
2021/07/25 11:53:56;;;;;;;5.32;4.15;;;32.10;60.10;;;;;;5010968;28;20080;-90
2021/07/25 11:56:21;;;;;;;5.47;4.55;;;32.10;60.70;;;;;;5019974;28;20073;-90
2021/07/25 11:59:05;;;;;;;8.15;4.68;;;32.10;62.30;;;;;;5020611;28;20460;-89
2021/07/25 12:01:32;;;;;;;6.22;4.88;;;32.20;59.80;;;;;;5020438;28;20044;-89
2021/07/25 12:04:04;;;;;;;6.72;4.80;;;32.10;61.10;;;;;;5020632;28;20046;-90
2021/07/25 12:06:30;;;;;;;5.30;4.63;;;32.10;61.00;;;;;;5020160;28;20038;-91
2021/07/25 12:09:06;;;;;;;5.85;4.45;;;32.10;62.00;;;;;;5020238;28;20424;-88
2021/07/25 12:11:43;;;;;;;5.63;4.30;;;32.00;61.10;;;;;;5020662;28;20038;-91
2021/07/25 12:14:09;;;;;;;4.93;3.90;;;31.90;61.40;;;;;;5020590;28;20041;-91
2021/07/25 12:16:51;;;;;;;6.18;4.30;;;31.80;59.80;;;;;;5020039;28;20030;-90
2021/07/25 12:19:20;;;;;;;5.72;3.75;;;31.70;64.00;;;;;;5020553;28;20044;-90
2021/07/25 12:22:15;;;;;;;5.53;4.13;;;31.60;61.00;;;;;;5032077;28;20060;-90
2021/07/25 12:24:54;;;;;;;4.45;3.55;;;31.60;61.10;;;;;;5022626;28;20074;-90
2021/07/25 12:27:41;;;;;;;5.85;3.53;;;31.70;64.30;;;;;;5019920;28;20034;-89
2021/07/25 12:30:17;;;;;;;5.00;3.80;;;31.70;60.90;;;;;;5020274;28;20118;-90
2021/07/25 12:32:47;;;;;;;7.13;4.07;;;31.70;62.20;;;;;;5020278;28;20226;-90
2021/07/25 12:35:20;;;;;;;7.00;3.50;;;31.70;59.80;;;;;;5020142;28;20095;-91
2021/07/25 12:38:35;;;;;;;4.60;3.70;;;31.80;62.90;;;;;;5019645;28;20037;-91
2021/07/25 12:41:20;;;;;;;7.05;4.07;;;32.00;63.80;;;;;;4983107;28;20048;-91
2021/07/25 12:44:25;;;;;;;6.95;4.32;;;32.20;59.20;;;;;;5020220;28;20038;-91
2021/07/25 12:46:59;;;;;;;4.45;3.78;;;32.40;61.10;;;;;;4999962;28;20038;-91
2021/07/25 12:53:16;;;;;;;8.57;3.97;;;32.60;58.50;;;;;;5017642;28;20114;-91
2021/07/25 12:56:30;;;;;;;5.05;4.00;;;32.60;57.20;;;;;;4985766;28;20142;-91
2021/07/25 12:59:11;;;;;;;6.30;3.83;;;32.60;59.70;;;;;;4985639;28;20133;-93
2021/07/25 13:04:24;;;;;;;;;;;;;;;;;;;;;
2021/07/25 13:10:35;;;;;;;5.25;4.07;;;32.30;58.70;;;;;;5018952;28;20124;-92
2021/07/25 13:13:03;;;;;;;6.25;4.00;;;32.30;57.90;;;;;;5019286;28;20408;-91
2021/07/25 13:16:23;;;;;;;4.78;3.75;;;32.40;61.60;;;;;;5019258;28;20100;-93
2021/07/25 13:18:54;;;;;;;5.22;3.83;;;32.50;58.60;;;;;;5035702;28;20132;-91
2021/07/25 13:21:25;;;;;;;6.72;3.92;;;32.60;59.10;;;;;;5019478;28;20037;-90
2021/07/25 13:23:54;;;;;;;5.20;3.95;;;32.80;59.00;;;;;;5018785;28;20060;-90
2021/07/25 13:26:40;;;;;;;5.10;3.85;;;33.00;58.90;;;;;;5021048;28;20033;-94
2021/07/25 13:29:08;;;;;;;5.72;3.45;;;33.10;55.70;;;;;;5037780;28;20022;-91
2021/07/25 13:31:34;;;;;;;4.90;3.85;;;33.20;56.80;;;;;;5020419;28;20057;-90
2021/07/25 13:34:00;;;;;;;7.22;3.88;;;33.20;55.50;;;;;;5018776;28;20084;-90
2021/07/25 13:36:28;;;;;;;5.38;3.80;;;33.20;58.30;;;;;;5018247;28;20068;-91
2021/07/25 13:38:54;;;;;;;3.78;2.90;;;33.30;55.80;;;;;;5018542;28;20472;-89
2021/07/25 13:41:31;;;;;;;6.50;3.33;;;33.20;57.20;;;;;;5018889;28;20049;-91
2021/07/25 13:44:01;;;;;;;4.43;3.50;;;33.10;56.30;;;;;;5019329;28;20463;-89
2021/07/25 13:46:58;;;;;;;;;;;;;;;;;;;;;
2021/07/25 13:49:46;;;;;;;4.18;3.03;;;33.00;55.30;;;;;;5018814;28;20026;-90
2021/07/25 13:52:19;;;;;;;4.53;3.50;;;33.00;56.00;;;;;;5018735;28;20034;-90
2021/07/25 13:55:00;;;;;;;7.57;3.25;;;33.00;58.40;;;;;;5018668;28;20635;-91
2021/07/25 13:57:42;;;;;;;4.57;3.40;;;33.10;59.40;;;;;;5018217;28;20065;-91
2021/07/25 14:00:13;;;;;;;7.80;3.65;;;33.20;56.80;;;;;;5018633;28;20038;-89
2021/07/25 14:02:39;;;;;;;4.20;3.15;;;33.30;56.60;;;;;;5020778;28;20044;-89
2021/07/25 14:05:10;;;;;;;3.90;3.08;;;33.20;54.40;;;;;;5032909;28;20070;-89
2021/07/25 14:07:39;;;;;;;6.25;3.45;;;33.10;55.80;;;;;;5018333;28;20102;-89
2021/07/25 14:10:08;;;;;;;6.95;4.05;;;33.10;56.40;;;;;;5018176;28;20096;-90
2021/07/25 14:12:36;;;;;;;6.28;3.83;;;32.90;55.80;;;;;;5017563;28;20037;-89
2021/07/25 14:15:03;;;;;;;4.47;3.00;;;32.80;57.70;;;;;;5018014;28;20128;-89
2021/07/25 14:17:29;;;;;;;4.78;3.50;;;32.80;55.80;;;;;;5017393;28;20357;-89
2021/07/25 14:19:54;;;;;;;4.05;3.15;;;32.80;57.70;;;;;;5017344;28;20033;-89
2021/07/25 14:22:22;;;;;;;6.10;3.85;;;32.80;58.50;;;;;;5017567;28;20045;-90
2021/07/25 14:24:59;;;;;;;5.78;3.65;;;32.80;56.10;;;;;;5017954;28;20077;-90
2021/07/25 14:27:25;;;;;;;6.72;4.22;;;32.80;58.00;;;;;;5018032;28;20095;-90
2021/07/25 14:29:53;;;;;;;5.22;3.60;;;32.90;58.30;;;;;;5017388;28;20034;-91
2021/07/25 14:33:37;;;;;;;5.05;3.67;;;33.00;55.80;;;;;;5017736;28;20274;-91
2021/07/25 14:35:52;;;;;;;7.38;3.47;;;33.10;55.20;;;;;;5006578;28;20034;-90
2021/07/25 14:38:18;;;;;;;5.32;4.13;;;33.10;56.20;;;;;;5017752;28;20386;-90
2021/07/25 14:40:52;;;;;;;7.47;4.15;;;33.20;55.90;;;;;;5018088;28;20053;-91
2021/07/25 14:46:13;;;;;;;4.20;3.80;;;33.40;54.40;;;;;;5015968;28;20084;-90
2021/07/25 14:48:39;;;;;;;4.90;3.78;;;33.30;55.50;;;;;;5018813;28;20095;-89
2021/07/25 14:51:16;;;;;;;5.50;4.43;;;33.40;57.00;;;;;;5021358;28;20042;-90
2021/07/25 14:53:48;;;;;;;6.65;4.70;;;33.50;55.90;;;;;;5021359;28;20088;-88
2021/07/25 14:56:14;;;;;;;5.45;3.85;;;33.50;54.70;;;;;;5020722;28;20033;-90
2021/07/25 14:58:42;;;;;;;8.50;3.67;;;33.50;54.90;;;;;;5021608;28;20100;-89
2021/07/25 15:01:33;;;;;;;4.95;4.25;;;33.60;55.10;;;;;;5021336;28;20358;-90
2021/07/25 15:04:15;;;;;;;4.25;3.35;;;33.60;54.10;;;;;;5021407;28;20065;-91
2021/07/25 15:06:42;;;;;;;5.90;3.92;;;33.80;55.50;;;;;;5028614;28;20034;-89
2021/07/25 15:09:10;;;;;;;5.10;3.75;;;33.90;55.80;;;;;;5038604;28;20065;-89
2021/07/25 15:11:36;;;;;;;5.25;3.00;;;34.10;55.60;;;;;;5032229;28;20045;-88
2021/07/25 15:14:02;;;;;;;5.20;3.20;;;34.10;50.50;;;;;;5022514;28;20088;-88
2021/07/25 15:16:40;;;;;;;3.75;3.25;;;33.90;51.80;;;;;;5021691;28;20041;-90
2021/07/25 15:19:08;;;;;;;4.15;3.05;;;33.80;52.80;;;;;;5021346;28;20073;-89
2021/07/25 15:21:44;;;;;;;;;;;;;;;;;;;;;
2021/07/25 15:24:24;;;;;;;5.10;2.85;;;33.60;55.30;;;;;;5022677;28;20055;-90
2021/07/25 15:27:06;;;;;;;4.82;3.03;;;33.50;52.60;;;;;;5030114;28;20046;-91
2021/07/25 15:29:32;;;;;;;;;;;33.50;53.70;;;;;;5022273;28;20038;-89
2021/07/25 15:31:58;;;;;;;4.55;3.00;;;33.50;54.70;;;;;;5020900;28;19909;-89
2021/07/25 15:34:23;;;;;;;3.75;2.70;;;33.50;55.00;;;;;;5020448;28;20076;-91
2021/07/25 15:36:49;;;;;;;7.28;3.50;;;33.40;54.10;;;;;;5020033;28;20034;-89
2021/07/25 15:39:14;;;;;;;4.72;3.03;;;33.30;52.80;;;;;;5020337;28;20034;-89
2021/07/25 15:41:40;;;;;;;4.80;3.20;;;33.30;53.40;;;;;;5020254;28;20116;-88
2021/07/25 15:44:06;;;;;;;4.55;3.70;;;33.20;53.00;;;;;;5019951;28;20068;-88
2021/07/25 15:46:32;;;;;;;3.85;3.05;;;33.00;55.00;;;;;;5019862;28;20041;-88
2021/07/25 15:48:58;;;;;;;4.70;3.60;;;32.90;55.30;;;;;;5019905;28;20495;-89
2021/07/25 15:51:24;;;;;;;8.15;3.83;;;32.70;54.60;;;;;;5020389;28;20053;-89
2021/07/25 15:53:51;;;;;;;5.65;3.75;;;32.60;55.50;;;;;;5020204;28;20038;-88
2021/07/25 15:56:17;;;;;;;5.32;3.80;;;32.50;54.30;;;;;;5019853;28;20547;-88
2021/07/25 15:58:43;;;;;;;3.97;2.95;;;32.40;56.00;;;;;;5020212;28;20116;-88
2021/07/25 16:01:11;;;;;;;3.85;2.50;;;32.20;54.50;;;;;;5020890;28;20127;-89
2021/07/25 16:03:37;;;;;;;4.57;2.78;;;32.00;54.40;;;;;;5039436;28;20049;-89
2021/07/25 16:06:03;;;;;;;5.75;3.05;;;31.80;54.50;;;;;;5022857;28;20045;-90
2021/07/25 16:08:36;;;;;;;14.13;3.20;;;31.70;56.00;;;;;;5020611;28;20044;-90
2021/07/25 16:11:27;;;;;;;8.70;2.80;;;31.50;59.60;;;;;;5024338;28;20408;-90
2021/07/25 16:13:56;;;;;;;5.45;2.88;;;31.20;61.10;;;;;;5015544;28;20337;-91
2021/07/25 16:16:23;;;;;;;4.03;2.90;;;30.80;62.00;;;;;;5020206;28;20148;-89
2021/07/25 16:18:55;;;;;;;8.93;2.92;;;30.40;63.30;;;;;;5020346;28;20030;-90
2021/07/25 16:21:26;;;;;;;;;;;30.00;63.90;;;;;;5020942;28;20038;-91
2021/07/25 16:23:56;;;;;;;3.80;2.75;;;29.60;65.20;;;;;;5020367;28;19924;-91
2021/07/25 16:26:23;;;;;;;13.32;3.90;;;29.20;66.00;;;;;;5020293;28;20286;-89
2021/07/25 16:29:00;;;;;;;8.63;3.45;;;28.90;67.70;;;;;;5019857;28;20348;-91
2021/07/25 16:31:55;;;;;;;5.20;2.92;;;28.50;69.30;;;;;;5022012;28;20065;-92
2021/07/25 16:34:23;;;;;;;8.95;2.92;;;28.20;69.90;;;;;;5021993;28;20286;-90
2021/07/25 16:36:53;;;;;;;4.47;2.35;;;28.00;69.80;;;;;;5024186;28;20038;-90
2021/07/25 16:39:22;;;;;;;3.38;2.63;;;27.80;70.20;;;;;;5023683;28;20056;-89
2021/07/25 16:41:48;;;;;;;3.42;2.67;;;27.60;70.20;;;;;;5023433;28;20401;-89
2021/07/25 16:44:14;;;;;;;5.25;2.65;;;27.50;71.10;;;;;;5020311;28;20055;-91
2021/07/25 16:46:40;;;;;;;3.08;2.28;;;27.30;71.60;;;;;;5020313;28;20054;-88
2021/07/25 16:49:14;;;;;;;6.20;2.40;;;27.10;72.30;;;;;;5020098;28;20401;-90
2021/07/25 16:51:44;;;;;;;4.25;3.13;;;27.00;73.30;;;;;;5020515;28;20061;-90
2021/07/25 16:54:10;;;;;;;5.65;2.47;;;26.90;74.60;;;;;;5019987;28;20034;-87
2021/07/25 16:56:35;;;;;;;9.52;2.65;;;26.70;75.50;;;;;;5018788;28;20120;-87
2021/07/25 16:59:01;;;;;;;3.42;2.70;;;26.60;76.30;;;;;;5019268;28;20432;-88
2021/07/25 17:01:27;;;;;;;6.85;2.92;;;26.50;77.90;;;;;;5018868;28;20064;-88
2021/07/25 17:03:53;;;;;;;5.18;3.17;;;26.40;79.80;;;;;;5019021;28;20277;-88